sensor_id;sensor_type;location;lat;lon;timestamp;P1;durP1;ratioP1;P2;durP2;ratioP2
77234;SDS011;66253;50.526;14.974;2024-03-06T00:00:12;24.20;;;12.40;;
77234;SDS011;66253;50.526;14.974;2024-03-06T00:02:41;25.70;;;13.00;;
77234;SDS011;66253;50.526;14.974;2024-03-06T00:05:09;30.80;;;13.60;;
77234;SDS011;66253;50.526;14.974;2024-03-06T00:07:41;29.10;;;13.70;;
77234;SDS011;66253;50.526;14.974;2024-03-06T00:10:09;33.90;;;15.40;;
77234;SDS011;66253;50.526;14.974;2024-03-06T00:12:38;29.00;;;14.30;;
77234;SDS011;66253;50.526;14.974;2024-03-06T00:15:06;33.90;;;16.00;;
77234;SDS011;66253;50.526;14.974;2024-03-06T00:17:35;35.20;;;17.20;;
77234;SDS011;66253;50.526;14.974;2024-03-06T00:20:03;51.20;;;20.80;;
77234;SDS011;66253;50.526;14.974;2024-03-06T00:22:33;51.30;;;20.80;;
77234;SDS011;66253;50.526;14.974;2024-03-06T00:25:01;41.00;;;18.50;;
77234;SDS011;66253;50.526;14.974;2024-03-06T00:27:30;47.00;;;19.70;;
77234;SDS011;66253;50.526;14.974;2024-03-06T00:29:59;39.70;;;17.60;;
77234;SDS011;66253;50.526;14.974;2024-03-06T00:32:28;33.50;;;16.80;;
77234;SDS011;66253;50.526;14.974;2024-03-06T00:34:56;33.50;;;15.40;;
77234;SDS011;66253;50.526;14.974;2024-03-06T00:37:24;39.90;;;18.90;;
77234;SDS011;66253;50.526;14.974;2024-03-06T00:39:52;40.70;;;17.40;;
77234;SDS011;66253;50.526;14.974;2024-03-06T00:42:20;39.60;;;19.10;;
77234;SDS011;66253;50.526;14.974;2024-03-06T00:44:49;43.60;;;18.10;;
77234;SDS011;66253;50.526;14.974;2024-03-06T00:47:17;41.30;;;17.50;;
77234;SDS011;66253;50.526;14.974;2024-03-06T00:49:46;44.50;;;18.50;;
77234;SDS011;66253;50.526;14.974;2024-03-06T00:52:14;45.50;;;18.70;;
77234;SDS011;66253;50.526;14.974;2024-03-06T00:54:42;37.50;;;16.80;;
77234;SDS011;66253;50.526;14.974;2024-03-06T00:57:13;35.30;;;16.80;;
77234;SDS011;66253;50.526;14.974;2024-03-06T00:59:42;38.50;;;16.50;;
77234;SDS011;66253;50.526;14.974;2024-03-06T01:02:10;36.10;;;16.60;;
77234;SDS011;66253;50.526;14.974;2024-03-06T01:04:38;43.30;;;17.50;;
77234;SDS011;66253;50.526;14.974;2024-03-06T01:07:06;39.00;;;16.50;;
77234;SDS011;66253;50.526;14.974;2024-03-06T01:09:35;38.90;;;16.30;;
77234;SDS011;66253;50.526;14.974;2024-03-06T01:12:03;44.80;;;17.20;;
77234;SDS011;66253;50.526;14.974;2024-03-06T01:14:31;39.70;;;16.60;;
77234;SDS011;66253;50.526;14.974;2024-03-06T01:17:00;31.90;;;14.80;;
77234;SDS011;66253;50.526;14.974;2024-03-06T01:19:29;35.90;;;18.50;;
77234;SDS011;66253;50.526;14.974;2024-03-06T01:21:57;45.90;;;18.10;;
77234;SDS011;66253;50.526;14.974;2024-03-06T01:24:26;69.30;;;25.50;;
77234;SDS011;66253;50.526;14.974;2024-03-06T01:26:54;53.90;;;21.10;;
77234;SDS011;66253;50.526;14.974;2024-03-06T01:29:22;46.30;;;18.80;;
77234;SDS011;66253;50.526;14.974;2024-03-06T01:31:50;50.90;;;19.70;;
77234;SDS011;66253;50.526;14.974;2024-03-06T01:34:18;55.70;;;20.90;;
77234;SDS011;66253;50.526;14.974;2024-03-06T01:36:47;55.70;;;21.40;;
77234;SDS011;66253;50.526;14.974;2024-03-06T01:39:15;53.00;;;20.20;;
77234;SDS011;66253;50.526;14.974;2024-03-06T01:41:45;47.40;;;18.40;;
77234;SDS011;66253;50.526;14.974;2024-03-06T01:44:14;40.10;;;16.90;;
77234;SDS011;66253;50.526;14.974;2024-03-06T01:46:44;41.00;;;18.00;;
77234;SDS011;66253;50.526;14.974;2024-03-06T01:49:13;34.60;;;16.10;;
77234;SDS011;66253;50.526;14.974;2024-03-06T01:51:43;36.50;;;15.70;;
77234;SDS011;66253;50.526;14.974;2024-03-06T01:54:15;32.00;;;14.70;;
77234;SDS011;66253;50.526;14.974;2024-03-06T01:56:44;31.00;;;15.00;;
77234;SDS011;66253;50.526;14.974;2024-03-06T01:59:14;31.40;;;15.30;;
77234;SDS011;66253;50.526;14.974;2024-03-06T02:01:43;44.70;;;18.10;;
77234;SDS011;66253;50.526;14.974;2024-03-06T02:04:12;29.40;;;15.40;;
77234;SDS011;66253;50.526;14.974;2024-03-06T02:06:41;29.50;;;16.00;;
77234;SDS011;66253;50.526;14.974;2024-03-06T02:09:09;33.00;;;15.50;;
77234;SDS011;66253;50.526;14.974;2024-03-06T02:11:37;31.10;;;14.40;;
77234;SDS011;66253;50.526;14.974;2024-03-06T02:14:05;29.80;;;14.50;;
77234;SDS011;66253;50.526;14.974;2024-03-06T02:16:34;31.30;;;16.40;;
77234;SDS011;66253;50.526;14.974;2024-03-06T02:19:02;28.70;;;14.00;;
77234;SDS011;66253;50.526;14.974;2024-03-06T02:21:31;30.80;;;14.70;;
77234;SDS011;66253;50.526;14.974;2024-03-06T02:23:59;30.70;;;15.00;;
77234;SDS011;66253;50.526;14.974;2024-03-06T02:26:28;32.20;;;16.10;;
77234;SDS011;66253;50.526;14.974;2024-03-06T02:28:56;35.40;;;16.90;;
77234;SDS011;66253;50.526;14.974;2024-03-06T02:31:25;33.00;;;15.70;;
77234;SDS011;66253;50.526;14.974;2024-03-06T02:33:53;30.80;;;15.80;;
77234;SDS011;66253;50.526;14.974;2024-03-06T02:36:21;32.40;;;14.50;;
77234;SDS011;66253;50.526;14.974;2024-03-06T02:38:50;31.70;;;15.10;;
77234;SDS011;66253;50.526;14.974;2024-03-06T02:41:18;34.40;;;16.90;;
77234;SDS011;66253;50.526;14.974;2024-03-06T02:43:46;33.70;;;15.00;;
77234;SDS011;66253;50.526;14.974;2024-03-06T02:46:14;29.50;;;15.10;;
77234;SDS011;66253;50.526;14.974;2024-03-06T02:48:42;32.40;;;15.00;;
77234;SDS011;66253;50.526;14.974;2024-03-06T02:51:10;31.60;;;14.10;;
77234;SDS011;66253;50.526;14.974;2024-03-06T02:53:46;31.80;;;14.00;;
77234;SDS011;66253;50.526;14.974;2024-03-06T02:56:17;31.00;;;14.90;;
77234;SDS011;66253;50.526;14.974;2024-03-06T02:58:45;29.00;;;14.20;;
77234;SDS011;66253;50.526;14.974;2024-03-06T03:01:14;29.50;;;14.00;;
77234;SDS011;66253;50.526;14.974;2024-03-06T03:03:42;32.70;;;15.60;;
77234;SDS011;66253;50.526;14.974;2024-03-06T03:06:10;29.40;;;14.10;;
77234;SDS011;66253;50.526;14.974;2024-03-06T03:08:39;32.00;;;14.30;;
77234;SDS011;66253;50.526;14.974;2024-03-06T03:11:11;30.60;;;13.70;;
77234;SDS011;66253;50.526;14.974;2024-03-06T03:13:39;31.10;;;14.50;;
77234;SDS011;66253;50.526;14.974;2024-03-06T03:16:07;32.00;;;14.70;;
77234;SDS011;66253;50.526;14.974;2024-03-06T03:18:41;29.70;;;14.20;;
77234;SDS011;66253;50.526;14.974;2024-03-06T03:21:09;31.80;;;15.30;;
77234;SDS011;66253;50.526;14.974;2024-03-06T03:23:38;29.30;;;14.30;;
77234;SDS011;66253;50.526;14.974;2024-03-06T03:26:07;28.50;;;13.60;;
77234;SDS011;66253;50.526;14.974;2024-03-06T03:28:36;28.30;;;14.60;;
77234;SDS011;66253;50.526;14.974;2024-03-06T03:31:05;31.20;;;16.40;;
77234;SDS011;66253;50.526;14.974;2024-03-06T03:33:34;31.30;;;17.00;;
77234;SDS011;66253;50.526;14.974;2024-03-06T03:36:02;29.60;;;15.80;;
77234;SDS011;66253;50.526;14.974;2024-03-06T03:38:31;29.60;;;14.80;;
77234;SDS011;66253;50.526;14.974;2024-03-06T03:40:59;29.20;;;14.70;;
77234;SDS011;66253;50.526;14.974;2024-03-06T03:43:28;30.80;;;16.20;;
77234;SDS011;66253;50.526;14.974;2024-03-06T03:45:56;24.50;;;13.30;;
77234;SDS011;66253;50.526;14.974;2024-03-06T03:48:24;26.60;;;12.30;;
77234;SDS011;66253;50.526;14.974;2024-03-06T03:50:52;26.50;;;12.70;;
77234;SDS011;66253;50.526;14.974;2024-03-06T03:53:20;26.10;;;12.60;;
77234;SDS011;66253;50.526;14.974;2024-03-06T03:55:49;26.40;;;13.50;;
77234;SDS011;66253;50.526;14.974;2024-03-06T03:58:17;28.30;;;13.30;;
77234;SDS011;66253;50.526;14.974;2024-03-06T04:00:45;26.20;;;13.10;;
77234;SDS011;66253;50.526;14.974;2024-03-06T04:03:13;26.10;;;12.70;;
77234;SDS011;66253;50.526;14.974;2024-03-06T04:05:42;27.40;;;13.70;;
77234;SDS011;66253;50.526;14.974;2024-03-06T04:08:10;27.30;;;13.60;;
77234;SDS011;66253;50.526;14.974;2024-03-06T04:10:38;28.60;;;13.70;;
77234;SDS011;66253;50.526;14.974;2024-03-06T04:13:07;25.10;;;12.50;;
77234;SDS011;66253;50.526;14.974;2024-03-06T04:15:36;25.10;;;12.30;;
77234;SDS011;66253;50.526;14.974;2024-03-06T04:18:04;22.70;;;11.70;;
77234;SDS011;66253;50.526;14.974;2024-03-06T04:20:33;25.90;;;12.00;;
77234;SDS011;66253;50.526;14.974;2024-03-06T04:23:01;23.90;;;11.80;;
77234;SDS011;66253;50.526;14.974;2024-03-06T04:25:29;26.40;;;11.50;;
77234;SDS011;66253;50.526;14.974;2024-03-06T04:27:57;25.60;;;11.40;;
77234;SDS011;66253;50.526;14.974;2024-03-06T04:30:25;23.90;;;11.50;;
77234;SDS011;66253;50.526;14.974;2024-03-06T04:32:53;23.60;;;10.80;;
77234;SDS011;66253;50.526;14.974;2024-03-06T04:35:21;26.30;;;12.10;;
77234;SDS011;66253;50.526;14.974;2024-03-06T04:37:50;26.30;;;11.40;;
77234;SDS011;66253;50.526;14.974;2024-03-06T04:40:18;26.70;;;11.50;;
77234;SDS011;66253;50.526;14.974;2024-03-06T04:42:46;20.90;;;10.80;;
77234;SDS011;66253;50.526;14.974;2024-03-06T04:45:16;22.80;;;10.00;;
77234;SDS011;66253;50.526;14.974;2024-03-06T04:47:44;21.70;;;10.60;;
77234;SDS011;66253;50.526;14.974;2024-03-06T04:50:12;22.70;;;12.30;;
77234;SDS011;66253;50.526;14.974;2024-03-06T04:52:41;24.00;;;10.90;;
77234;SDS011;66253;50.526;14.974;2024-03-06T04:55:09;23.50;;;11.80;;
77234;SDS011;66253;50.526;14.974;2024-03-06T04:57:37;22.70;;;10.30;;
77234;SDS011;66253;50.526;14.974;2024-03-06T05:00:07;25.10;;;10.90;;
77234;SDS011;66253;50.526;14.974;2024-03-06T05:02:37;23.40;;;10.80;;
77234;SDS011;66253;50.526;14.974;2024-03-06T05:05:05;23.90;;;11.30;;
77234;SDS011;66253;50.526;14.974;2024-03-06T05:07:34;23.20;;;10.90;;
77234;SDS011;66253;50.526;14.974;2024-03-06T05:10:03;23.00;;;10.80;;
77234;SDS011;66253;50.526;14.974;2024-03-06T05:12:32;26.00;;;11.20;;
77234;SDS011;66253;50.526;14.974;2024-03-06T05:15:00;24.20;;;11.30;;
77234;SDS011;66253;50.526;14.974;2024-03-06T05:17:31;26.50;;;12.30;;
77234;SDS011;66253;50.526;14.974;2024-03-06T05:19:59;35.50;;;15.00;;
77234;SDS011;66253;50.526;14.974;2024-03-06T05:22:30;26.20;;;13.30;;
77234;SDS011;66253;50.526;14.974;2024-03-06T05:24:58;31.80;;;14.40;;
77234;SDS011;66253;50.526;14.974;2024-03-06T05:27:26;30.10;;;12.90;;
77234;SDS011;66253;50.526;14.974;2024-03-06T05:29:54;29.60;;;13.50;;
77234;SDS011;66253;50.526;14.974;2024-03-06T05:32:22;25.60;;;12.80;;
77234;SDS011;66253;50.526;14.974;2024-03-06T05:34:50;25.50;;;12.80;;
77234;SDS011;66253;50.526;14.974;2024-03-06T05:37:19;29.10;;;12.90;;
77234;SDS011;66253;50.526;14.974;2024-03-06T05:39:47;26.50;;;12.00;;
77234;SDS011;66253;50.526;14.974;2024-03-06T05:42:15;29.10;;;13.00;;
77234;SDS011;66253;50.526;14.974;2024-03-06T05:44:43;27.40;;;13.10;;
77234;SDS011;66253;50.526;14.974;2024-03-06T05:47:11;31.20;;;12.70;;
77234;SDS011;66253;50.526;14.974;2024-03-06T05:49:40;27.00;;;12.30;;
77234;SDS011;66253;50.526;14.974;2024-03-06T05:52:08;25.10;;;11.90;;
77234;SDS011;66253;50.526;14.974;2024-03-06T05:54:36;25.30;;;11.70;;
77234;SDS011;66253;50.526;14.974;2024-03-06T05:57:04;31.00;;;13.30;;
77234;SDS011;66253;50.526;14.974;2024-03-06T05:59:33;29.10;;;12.60;;
77234;SDS011;66253;50.526;14.974;2024-03-06T06:02:01;28.30;;;13.10;;
77234;SDS011;66253;50.526;14.974;2024-03-06T06:04:30;31.50;;;13.70;;
77234;SDS011;66253;50.526;14.974;2024-03-06T06:06:58;28.40;;;14.00;;
77234;SDS011;66253;50.526;14.974;2024-03-06T06:09:26;32.20;;;13.90;;
77234;SDS011;66253;50.526;14.974;2024-03-06T06:11:54;39.50;;;16.20;;
77234;SDS011;66253;50.526;14.974;2024-03-06T06:14:22;34.40;;;15.40;;
77234;SDS011;66253;50.526;14.974;2024-03-06T06:16:50;29.20;;;13.40;;
77234;SDS011;66253;50.526;14.974;2024-03-06T06:19:19;32.70;;;15.40;;
77234;SDS011;66253;50.526;14.974;2024-03-06T06:21:47;29.20;;;14.20;;
77234;SDS011;66253;50.526;14.974;2024-03-06T06:24:15;29.80;;;14.00;;
77234;SDS011;66253;50.526;14.974;2024-03-06T06:26:43;30.50;;;14.40;;
77234;SDS011;66253;50.526;14.974;2024-03-06T06:29:11;32.80;;;14.40;;
77234;SDS011;66253;50.526;14.974;2024-03-06T06:31:40;125.50;;;41.90;;
77234;SDS011;66253;50.526;14.974;2024-03-06T06:34:08;223.70;;;65.50;;
77234;SDS011;66253;50.526;14.974;2024-03-06T06:36:36;239.90;;;69.30;;
77234;SDS011;66253;50.526;14.974;2024-03-06T06:39:04;245.40;;;72.50;;
77234;SDS011;66253;50.526;14.974;2024-03-06T06:41:32;127.60;;;44.00;;
77234;SDS011;66253;50.526;14.974;2024-03-06T06:44:00;76.60;;;28.60;;
77234;SDS011;66253;50.526;14.974;2024-03-06T06:46:29;49.70;;;20.90;;
77234;SDS011;66253;50.526;14.974;2024-03-06T06:48:57;43.10;;;19.10;;
77234;SDS011;66253;50.526;14.974;2024-03-06T06:51:25;39.70;;;16.50;;
77234;SDS011;66253;50.526;14.974;2024-03-06T06:53:53;40.70;;;18.00;;
77234;SDS011;66253;50.526;14.974;2024-03-06T06:56:21;42.30;;;18.30;;
77234;SDS011;66253;50.526;14.974;2024-03-06T06:58:50;39.30;;;18.30;;
77234;SDS011;66253;50.526;14.974;2024-03-06T07:01:18;34.30;;;15.60;;
77234;SDS011;66253;50.526;14.974;2024-03-06T07:03:46;39.00;;;17.30;;
77234;SDS011;66253;50.526;14.974;2024-03-06T07:06:14;37.00;;;17.00;;
77234;SDS011;66253;50.526;14.974;2024-03-06T07:08:44;38.20;;;17.00;;
77234;SDS011;66253;50.526;14.974;2024-03-06T07:11:12;33.30;;;15.50;;
77234;SDS011;66253;50.526;14.974;2024-03-06T07:13:42;31.80;;;15.20;;
77234;SDS011;66253;50.526;14.974;2024-03-06T07:16:11;36.20;;;17.70;;
77234;SDS011;66253;50.526;14.974;2024-03-06T07:18:39;37.80;;;18.40;;
77234;SDS011;66253;50.526;14.974;2024-03-06T07:21:07;40.40;;;18.20;;
77234;SDS011;66253;50.526;14.974;2024-03-06T07:23:37;37.70;;;17.30;;
77234;SDS011;66253;50.526;14.974;2024-03-06T07:26:06;38.80;;;17.80;;
77234;SDS011;66253;50.526;14.974;2024-03-06T07:28:34;40.60;;;19.30;;
77234;SDS011;66253;50.526;14.974;2024-03-06T07:31:02;33.70;;;16.80;;
77234;SDS011;66253;50.526;14.974;2024-03-06T07:33:31;35.60;;;16.70;;
77234;SDS011;66253;50.526;14.974;2024-03-06T07:36:00;35.90;;;15.50;;
77234;SDS011;66253;50.526;14.974;2024-03-06T07:38:28;38.20;;;17.60;;
77234;SDS011;66253;50.526;14.974;2024-03-06T07:40:57;38.00;;;17.60;;
77234;SDS011;66253;50.526;14.974;2024-03-06T07:43:25;35.30;;;16.60;;
77234;SDS011;66253;50.526;14.974;2024-03-06T07:45:53;32.30;;;16.10;;
77234;SDS011;66253;50.526;14.974;2024-03-06T07:48:22;36.80;;;17.90;;
77234;SDS011;66253;50.526;14.974;2024-03-06T07:50:50;36.40;;;16.30;;
77234;SDS011;66253;50.526;14.974;2024-03-06T07:53:18;37.40;;;17.20;;
77234;SDS011;66253;50.526;14.974;2024-03-06T07:55:46;33.10;;;15.90;;
77234;SDS011;66253;50.526;14.974;2024-03-06T07:58:15;33.30;;;15.20;;
77234;SDS011;66253;50.526;14.974;2024-03-06T08:00:43;33.70;;;15.90;;
77234;SDS011;66253;50.526;14.974;2024-03-06T08:03:11;35.70;;;16.20;;
77234;SDS011;66253;50.526;14.974;2024-03-06T08:05:41;35.20;;;17.00;;
77234;SDS011;66253;50.526;14.974;2024-03-06T08:08:11;34.10;;;16.70;;
77234;SDS011;66253;50.526;14.974;2024-03-06T08:10:40;36.40;;;19.00;;
77234;SDS011;66253;50.526;14.974;2024-03-06T08:13:09;35.80;;;16.20;;
77234;SDS011;66253;50.526;14.974;2024-03-06T08:15:37;35.60;;;17.00;;
77234;SDS011;66253;50.526;14.974;2024-03-06T08:18:05;37.70;;;17.80;;
77234;SDS011;66253;50.526;14.974;2024-03-06T08:20:35;35.20;;;15.70;;
77234;SDS011;66253;50.526;14.974;2024-03-06T08:23:03;31.90;;;15.80;;
77234;SDS011;66253;50.526;14.974;2024-03-06T08:25:32;30.40;;;15.40;;
77234;SDS011;66253;50.526;14.974;2024-03-06T08:28:00;31.40;;;15.40;;
77234;SDS011;66253;50.526;14.974;2024-03-06T08:30:29;32.70;;;15.90;;
77234;SDS011;66253;50.526;14.974;2024-03-06T08:32:57;31.00;;;14.10;;
77234;SDS011;66253;50.526;14.974;2024-03-06T08:35:26;31.70;;;16.20;;
77234;SDS011;66253;50.526;14.974;2024-03-06T08:37:54;29.40;;;13.20;;
77234;SDS011;66253;50.526;14.974;2024-03-06T08:40:26;29.40;;;14.80;;
77234;SDS011;66253;50.526;14.974;2024-03-06T08:42:54;28.10;;;13.90;;
77234;SDS011;66253;50.526;14.974;2024-03-06T08:45:22;28.60;;;13.90;;
77234;SDS011;66253;50.526;14.974;2024-03-06T08:47:50;31.60;;;14.30;;
77234;SDS011;66253;50.526;14.974;2024-03-06T08:50:19;29.00;;;15.10;;
77234;SDS011;66253;50.526;14.974;2024-03-06T08:52:47;28.50;;;13.70;;
77234;SDS011;66253;50.526;14.974;2024-03-06T08:55:15;29.00;;;14.20;;
77234;SDS011;66253;50.526;14.974;2024-03-06T08:57:43;30.10;;;14.40;;
77234;SDS011;66253;50.526;14.974;2024-03-06T09:00:12;28.00;;;13.90;;
77234;SDS011;66253;50.526;14.974;2024-03-06T09:02:42;31.50;;;14.70;;
77234;SDS011;66253;50.526;14.974;2024-03-06T09:05:10;28.20;;;14.50;;
77234;SDS011;66253;50.526;14.974;2024-03-06T09:07:39;26.40;;;13.30;;
77234;SDS011;66253;50.526;14.974;2024-03-06T09:10:08;27.20;;;13.70;;
77234;SDS011;66253;50.526;14.974;2024-03-06T09:12:37;26.90;;;14.40;;
77234;SDS011;66253;50.526;14.974;2024-03-06T09:15:06;26.30;;;12.80;;
77234;SDS011;66253;50.526;14.974;2024-03-06T09:17:34;24.90;;;12.90;;
77234;SDS011;66253;50.526;14.974;2024-03-06T09:20:03;27.00;;;13.70;;
77234;SDS011;66253;50.526;14.974;2024-03-06T09:22:33;31.00;;;12.90;;
77234;SDS011;66253;50.526;14.974;2024-03-06T09:25:09;28.00;;;13.80;;
77234;SDS011;66253;50.526;14.974;2024-03-06T09:27:38;24.90;;;12.90;;
77234;SDS011;66253;50.526;14.974;2024-03-06T09:30:07;25.10;;;12.30;;
77234;SDS011;66253;50.526;14.974;2024-03-06T09:32:37;24.30;;;12.70;;
77234;SDS011;66253;50.526;14.974;2024-03-06T09:35:05;26.00;;;11.50;;
77234;SDS011;66253;50.526;14.974;2024-03-06T09:37:34;29.10;;;11.70;;
77234;SDS011;66253;50.526;14.974;2024-03-06T09:40:05;25.00;;;11.30;;
77234;SDS011;66253;50.526;14.974;2024-03-06T09:42:35;25.30;;;13.00;;
77234;SDS011;66253;50.526;14.974;2024-03-06T09:45:04;25.30;;;12.80;;
77234;SDS011;66253;50.526;14.974;2024-03-06T09:47:33;26.40;;;12.80;;
77234;SDS011;66253;50.526;14.974;2024-03-06T09:50:05;27.60;;;12.30;;
77234;SDS011;66253;50.526;14.974;2024-03-06T09:52:36;25.40;;;13.00;;
77234;SDS011;66253;50.526;14.974;2024-03-06T09:55:08;28.50;;;14.40;;
77234;SDS011;66253;50.526;14.974;2024-03-06T09:57:36;28.60;;;13.00;;
77234;SDS011;66253;50.526;14.974;2024-03-06T10:00:08;25.90;;;15.20;;
77234;SDS011;66253;50.526;14.974;2024-03-06T10:02:37;28.60;;;13.60;;
77234;SDS011;66253;50.526;14.974;2024-03-06T10:05:21;25.50;;;13.60;;
77234;SDS011;66253;50.526;14.974;2024-03-06T10:07:51;26.50;;;13.60;;
77234;SDS011;66253;50.526;14.974;2024-03-06T10:10:20;25.70;;;14.10;;
77234;SDS011;66253;50.526;14.974;2024-03-06T10:12:48;26.40;;;14.00;;
77234;SDS011;66253;50.526;14.974;2024-03-06T10:15:17;24.30;;;13.00;;
77234;SDS011;66253;50.526;14.974;2024-03-06T10:17:45;26.70;;;14.20;;
77234;SDS011;66253;50.526;14.974;2024-03-06T10:20:22;26.40;;;13.10;;
77234;SDS011;66253;50.526;14.974;2024-03-06T10:22:51;25.30;;;14.40;;
77234;SDS011;66253;50.526;14.974;2024-03-06T10:25:20;27.00;;;15.80;;
77234;SDS011;66253;50.526;14.974;2024-03-06T10:30:32;22.70;;;12.60;;
77234;SDS011;66253;50.526;14.974;2024-03-06T10:33:00;26.40;;;12.30;;
77234;SDS011;66253;50.526;14.974;2024-03-06T10:35:29;24.20;;;13.10;;
77234;SDS011;66253;50.526;14.974;2024-03-06T10:37:57;22.90;;;11.70;;
77234;SDS011;66253;50.526;14.974;2024-03-06T10:40:28;25.60;;;13.80;;
77234;SDS011;66253;50.526;14.974;2024-03-06T10:42:59;25.40;;;14.10;;
77234;SDS011;66253;50.526;14.974;2024-03-06T10:45:32;27.40;;;15.10;;
77234;SDS011;66253;50.526;14.974;2024-03-06T10:48:06;25.10;;;12.50;;
77234;SDS011;66253;50.526;14.974;2024-03-06T10:50:35;27.40;;;13.10;;
77234;SDS011;66253;50.526;14.974;2024-03-06T10:53:05;24.10;;;12.60;;
77234;SDS011;66253;50.526;14.974;2024-03-06T10:55:36;27.00;;;13.90;;
77234;SDS011;66253;50.526;14.974;2024-03-06T10:58:05;26.50;;;13.30;;
77234;SDS011;66253;50.526;14.974;2024-03-06T11:00:34;22.20;;;11.50;;
77234;SDS011;66253;50.526;14.974;2024-03-06T11:03:05;24.60;;;12.70;;
77234;SDS011;66253;50.526;14.974;2024-03-06T11:08:02;21.70;;;10.40;;
77234;SDS011;66253;50.526;14.974;2024-03-06T11:10:32;26.70;;;13.00;;
77234;SDS011;66253;50.526;14.974;2024-03-06T11:13:01;24.40;;;13.10;;
77234;SDS011;66253;50.526;14.974;2024-03-06T11:15:29;24.50;;;12.20;;
77234;SDS011;66253;50.526;14.974;2024-03-06T11:17:58;28.00;;;14.10;;
77234;SDS011;66253;50.526;14.974;2024-03-06T11:20:46;30.60;;;15.00;;
77234;SDS011;66253;50.526;14.974;2024-03-06T11:23:14;30.30;;;14.20;;
77234;SDS011;66253;50.526;14.974;2024-03-06T11:25:58;27.10;;;15.10;;
77234;SDS011;66253;50.526;14.974;2024-03-06T11:28:30;26.70;;;14.10;;
77234;SDS011;66253;50.526;14.974;2024-03-06T11:30:59;29.50;;;14.30;;
77234;SDS011;66253;50.526;14.974;2024-03-06T11:33:33;31.40;;;15.20;;
77234;SDS011;66253;50.526;14.974;2024-03-06T11:36:16;26.90;;;14.20;;
77234;SDS011;66253;50.526;14.974;2024-03-06T11:41:17;26.70;;;14.20;;
77234;SDS011;66253;50.526;14.974;2024-03-06T11:43:46;27.20;;;12.60;;
77234;SDS011;66253;50.526;14.974;2024-03-06T11:46:16;28.90;;;14.60;;
77234;SDS011;66253;50.526;14.974;2024-03-06T11:48:44;27.20;;;13.40;;
77234;SDS011;66253;50.526;14.974;2024-03-06T11:51:19;27.40;;;15.10;;
77234;SDS011;66253;50.526;14.974;2024-03-06T11:53:50;26.70;;;13.90;;
77234;SDS011;66253;50.526;14.974;2024-03-06T11:56:19;31.30;;;14.70;;
77234;SDS011;66253;50.526;14.974;2024-03-06T11:58:47;27.30;;;13.40;;
77234;SDS011;66253;50.526;14.974;2024-03-06T12:01:15;27.60;;;14.20;;
77234;SDS011;66253;50.526;14.974;2024-03-06T12:03:44;26.00;;;14.30;;
77234;SDS011;66253;50.526;14.974;2024-03-06T12:06:13;29.20;;;14.40;;
77234;SDS011;66253;50.526;14.974;2024-03-06T12:08:42;27.40;;;14.40;;
77234;SDS011;66253;50.526;14.974;2024-03-06T12:11:11;27.00;;;13.80;;
77234;SDS011;66253;50.526;14.974;2024-03-06T12:13:41;28.90;;;14.00;;
77234;SDS011;66253;50.526;14.974;2024-03-06T12:16:10;27.30;;;14.10;;
77234;SDS011;66253;50.526;14.974;2024-03-06T12:18:38;26.00;;;12.90;;
77234;SDS011;66253;50.526;14.974;2024-03-06T12:21:06;26.00;;;14.00;;
77234;SDS011;66253;50.526;14.974;2024-03-06T12:23:37;25.30;;;14.00;;
77234;SDS011;66253;50.526;14.974;2024-03-06T12:26:05;27.30;;;13.40;;
77234;SDS011;66253;50.526;14.974;2024-03-06T12:28:35;26.90;;;14.00;;
77234;SDS011;66253;50.526;14.974;2024-03-06T12:31:04;27.90;;;15.30;;
77234;SDS011;66253;50.526;14.974;2024-03-06T12:33:32;28.00;;;14.20;;
77234;SDS011;66253;50.526;14.974;2024-03-06T12:36:02;25.20;;;13.60;;
77234;SDS011;66253;50.526;14.974;2024-03-06T12:38:32;22.30;;;11.20;;
77234;SDS011;66253;50.526;14.974;2024-03-06T12:41:00;22.00;;;10.30;;
77234;SDS011;66253;50.526;14.974;2024-03-06T12:43:30;22.60;;;12.00;;
77234;SDS011;66253;50.526;14.974;2024-03-06T12:45:58;24.30;;;12.10;;
77234;SDS011;66253;50.526;14.974;2024-03-06T12:48:26;25.50;;;12.60;;
77234;SDS011;66253;50.526;14.974;2024-03-06T12:50:54;23.90;;;12.60;;
77234;SDS011;66253;50.526;14.974;2024-03-06T12:53:23;27.40;;;15.20;;
77234;SDS011;66253;50.526;14.974;2024-03-06T12:55:51;23.40;;;12.30;;
77234;SDS011;66253;50.526;14.974;2024-03-06T12:58:19;25.40;;;12.40;;
77234;SDS011;66253;50.526;14.974;2024-03-06T13:00:47;24.90;;;12.40;;
77234;SDS011;66253;50.526;14.974;2024-03-06T13:03:16;26.60;;;14.80;;
77234;SDS011;66253;50.526;14.974;2024-03-06T13:05:44;26.70;;;13.30;;
77234;SDS011;66253;50.526;14.974;2024-03-06T13:08:12;30.30;;;15.10;;
77234;SDS011;66253;50.526;14.974;2024-03-06T13:10:40;25.30;;;13.00;;
77234;SDS011;66253;50.526;14.974;2024-03-06T13:13:09;26.70;;;13.10;;
77234;SDS011;66253;50.526;14.974;2024-03-06T13:15:37;28.50;;;16.30;;
77234;SDS011;66253;50.526;14.974;2024-03-06T13:18:06;27.40;;;15.00;;
77234;SDS011;66253;50.526;14.974;2024-03-06T13:20:34;27.90;;;14.80;;
77234;SDS011;66253;50.526;14.974;2024-03-06T13:23:02;27.30;;;15.60;;
77234;SDS011;66253;50.526;14.974;2024-03-06T13:25:31;31.80;;;14.90;;
77234;SDS011;66253;50.526;14.974;2024-03-06T13:27:59;27.10;;;14.70;;
77234;SDS011;66253;50.526;14.974;2024-03-06T13:30:29;25.40;;;13.40;;
77234;SDS011;66253;50.526;14.974;2024-03-06T13:32:57;28.80;;;14.70;;
77234;SDS011;66253;50.526;14.974;2024-03-06T13:35:25;30.80;;;16.00;;
77234;SDS011;66253;50.526;14.974;2024-03-06T13:37:54;30.70;;;16.40;;
77234;SDS011;66253;50.526;14.974;2024-03-06T13:40:22;29.50;;;16.20;;
77234;SDS011;66253;50.526;14.974;2024-03-06T13:42:51;30.40;;;16.20;;
77234;SDS011;66253;50.526;14.974;2024-03-06T13:45:20;30.30;;;16.60;;
77234;SDS011;66253;50.526;14.974;2024-03-06T13:47:48;31.70;;;16.50;;
77234;SDS011;66253;50.526;14.974;2024-03-06T13:50:16;31.90;;;16.50;;
77234;SDS011;66253;50.526;14.974;2024-03-06T13:52:44;34.20;;;17.10;;
77234;SDS011;66253;50.526;14.974;2024-03-06T13:55:13;33.30;;;16.10;;
77234;SDS011;66253;50.526;14.974;2024-03-06T13:57:41;31.30;;;16.60;;
77234;SDS011;66253;50.526;14.974;2024-03-06T14:00:10;32.10;;;16.60;;
77234;SDS011;66253;50.526;14.974;2024-03-06T14:02:41;29.80;;;15.00;;
77234;SDS011;66253;50.526;14.974;2024-03-06T14:05:10;33.30;;;18.30;;
77234;SDS011;66253;50.526;14.974;2024-03-06T14:07:39;33.80;;;15.60;;
77234;SDS011;66253;50.526;14.974;2024-03-06T14:10:08;32.90;;;16.40;;
77234;SDS011;66253;50.526;14.974;2024-03-06T14:12:36;29.30;;;15.10;;
77234;SDS011;66253;50.526;14.974;2024-03-06T14:15:06;31.80;;;17.20;;
77234;SDS011;66253;50.526;14.974;2024-03-06T14:20:02;29.50;;;14.40;;
77234;SDS011;66253;50.526;14.974;2024-03-06T14:22:31;33.90;;;16.50;;
77234;SDS011;66253;50.526;14.974;2024-03-06T14:24:59;34.30;;;17.80;;
77234;SDS011;66253;50.526;14.974;2024-03-06T14:30:25;32.80;;;17.00;;